sensor_id;sensor_type;location;lat;lon;timestamp;P1;durP1;ratioP1;P2;durP2;ratioP2
20982;SDS011;10650;51.528;6.748;2023-04-01T00:00:31;7.65;;;2.90;;
20982;SDS011;10650;51.528;6.748;2023-04-01T00:02:59;8.30;;;3.33;;
20982;SDS011;10650;51.528;6.748;2023-04-01T00:05:27;5.75;;;3.53;;
20982;SDS011;10650;51.528;6.748;2023-04-01T00:07:55;7.75;;;2.97;;
20982;SDS011;10650;51.528;6.748;2023-04-01T00:10:23;5.75;;;3.05;;
20982;SDS011;10650;51.528;6.748;2023-04-01T00:12:51;7.20;;;3.10;;
20982;SDS011;10650;51.528;6.748;2023-04-01T00:15:20;5.82;;;3.15;;
20982;SDS011;10650;51.528;6.748;2023-04-01T00:17:48;7.53;;;3.58;;
20982;SDS011;10650;51.528;6.748;2023-04-01T00:20:16;8.45;;;3.47;;
20982;SDS011;10650;51.528;6.748;2023-04-01T00:22:45;7.38;;;2.90;;
20982;SDS011;10650;51.528;6.748;2023-04-01T00:25:13;7.05;;;2.70;;
20982;SDS011;10650;51.528;6.748;2023-04-01T00:27:41;6.13;;;2.67;;
20982;SDS011;10650;51.528;6.748;2023-04-01T00:30:09;5.07;;;1.98;;
20982;SDS011;10650;51.528;6.748;2023-04-01T00:32:39;6.20;;;2.20;;
20982;SDS011;10650;51.528;6.748;2023-04-01T00:35:07;5.90;;;2.00;;
20982;SDS011;10650;51.528;6.748;2023-04-01T00:37:35;4.85;;;1.80;;
20982;SDS011;10650;51.528;6.748;2023-04-01T00:40:08;7.18;;;2.38;;
20982;SDS011;10650;51.528;6.748;2023-04-01T00:42:51;3.33;;;2.15;;
20982;SDS011;10650;51.528;6.748;2023-04-01T00:45:26;5.53;;;2.38;;
20982;SDS011;10650;51.528;6.748;2023-04-01T00:48:02;6.13;;;2.47;;
20982;SDS011;10650;51.528;6.748;2023-04-01T00:50:33;4.35;;;2.20;;
20982;SDS011;10650;51.528;6.748;2023-04-01T00:53:03;6.40;;;3.17;;
20982;SDS011;10650;51.528;6.748;2023-04-01T00:55:34;7.95;;;3.17;;
20982;SDS011;10650;51.528;6.748;2023-04-01T00:58:05;5.03;;;2.70;;
20982;SDS011;10650;51.528;6.748;2023-04-01T01:00:40;3.80;;;2.50;;
20982;SDS011;10650;51.528;6.748;2023-04-01T01:03:10;7.43;;;3.60;;
20982;SDS011;10650;51.528;6.748;2023-04-01T01:05:45;6.22;;;3.40;;
20982;SDS011;10650;51.528;6.748;2023-04-01T01:08:28;8.15;;;3.90;;
20982;SDS011;10650;51.528;6.748;2023-04-01T01:11:02;7.88;;;3.90;;
20982;SDS011;10650;51.528;6.748;2023-04-01T01:13:36;7.95;;;3.92;;
20982;SDS011;10650;51.528;6.748;2023-04-01T01:16:12;6.18;;;4.03;;
20982;SDS011;10650;51.528;6.748;2023-04-01T01:18:49;10.15;;;5.22;;
20982;SDS011;10650;51.528;6.748;2023-04-01T01:24:43;8.65;;;4.22;;
20982;SDS011;10650;51.528;6.748;2023-04-01T01:27:22;8.77;;;5.00;;
20982;SDS011;10650;51.528;6.748;2023-04-01T01:30:05;8.25;;;3.75;;
20982;SDS011;10650;51.528;6.748;2023-04-01T01:32:54;10.27;;;4.55;;
20982;SDS011;10650;51.528;6.748;2023-04-01T01:38:10;6.38;;;3.03;;
20982;SDS011;10650;51.528;6.748;2023-04-01T01:40:41;6.77;;;3.03;;
20982;SDS011;10650;51.528;6.748;2023-04-01T01:43:12;4.90;;;2.20;;
20982;SDS011;10650;51.528;6.748;2023-04-01T01:45:44;5.03;;;2.47;;
20982;SDS011;10650;51.528;6.748;2023-04-01T01:48:16;5.55;;;3.40;;
20982;SDS011;10650;51.528;6.748;2023-04-01T01:50:46;5.72;;;2.80;;
20982;SDS011;10650;51.528;6.748;2023-04-01T01:53:15;5.78;;;2.60;;
20982;SDS011;10650;51.528;6.748;2023-04-01T01:55:44;6.30;;;2.53;;
20982;SDS011;10650;51.528;6.748;2023-04-01T01:58:16;4.10;;;2.00;;
20982;SDS011;10650;51.528;6.748;2023-04-01T02:00:48;3.72;;;1.77;;
20982;SDS011;10650;51.528;6.748;2023-04-01T02:03:20;4.05;;;1.60;;
20982;SDS011;10650;51.528;6.748;2023-04-01T02:05:53;4.05;;;1.58;;
20982;SDS011;10650;51.528;6.748;2023-04-01T02:08:24;4.18;;;1.67;;
20982;SDS011;10650;51.528;6.748;2023-04-01T02:10:56;2.47;;;1.70;;
20982;SDS011;10650;51.528;6.748;2023-04-01T02:13:28;3.88;;;1.58;;
20982;SDS011;10650;51.528;6.748;2023-04-01T02:16:00;3.03;;;1.83;;
20982;SDS011;10650;51.528;6.748;2023-04-01T02:18:33;4.25;;;1.90;;
20982;SDS011;10650;51.528;6.748;2023-04-01T02:21:05;3.45;;;1.98;;
20982;SDS011;10650;51.528;6.748;2023-04-01T02:23:35;5.15;;;2.95;;
20982;SDS011;10650;51.528;6.748;2023-04-01T02:26:05;3.40;;;1.80;;
20982;SDS011;10650;51.528;6.748;2023-04-01T02:28:36;4.07;;;1.70;;
20982;SDS011;10650;51.528;6.748;2023-04-01T02:31:06;1.98;;;1.48;;
20982;SDS011;10650;51.528;6.748;2023-04-01T02:33:37;3.22;;;1.83;;
20982;SDS011;10650;51.528;6.748;2023-04-01T02:36:08;2.53;;;1.40;;
20982;SDS011;10650;51.528;6.748;2023-04-01T02:38:39;2.95;;;1.30;;
20982;SDS011;10650;51.528;6.748;2023-04-01T02:41:19;1.55;;;0.90;;
20982;SDS011;10650;51.528;6.748;2023-04-01T02:43:47;1.85;;;1.10;;
20982;SDS011;10650;51.528;6.748;2023-04-01T02:46:14;2.47;;;1.40;;
20982;SDS011;10650;51.528;6.748;2023-04-01T02:48:42;3.63;;;1.20;;
20982;SDS011;10650;51.528;6.748;2023-04-01T02:51:11;1.38;;;1.10;;
20982;SDS011;10650;51.528;6.748;2023-04-01T02:53:41;1.73;;;1.05;;
20982;SDS011;10650;51.528;6.748;2023-04-01T02:56:09;7.35;;;4.55;;
20982;SDS011;10650;51.528;6.748;2023-04-01T02:58:37;4.03;;;1.42;;
20982;SDS011;10650;51.528;6.748;2023-04-01T03:01:05;2.15;;;1.50;;
20982;SDS011;10650;51.528;6.748;2023-04-01T03:03:34;2.53;;;1.52;;
20982;SDS011;10650;51.528;6.748;2023-04-01T03:06:05;2.35;;;1.42;;
20982;SDS011;10650;51.528;6.748;2023-04-01T03:08:34;2.33;;;1.15;;
20982;SDS011;10650;51.528;6.748;2023-04-01T03:11:02;1.60;;;1.40;;
20982;SDS011;10650;51.528;6.748;2023-04-01T03:13:30;3.65;;;1.40;;
20982;SDS011;10650;51.528;6.748;2023-04-01T03:15:57;1.75;;;1.50;;
20982;SDS011;10650;51.528;6.748;2023-04-01T03:18:25;3.15;;;1.90;;
20982;SDS011;10650;51.528;6.748;2023-04-01T03:20:53;1.70;;;1.60;;
20982;SDS011;10650;51.528;6.748;2023-04-01T03:23:21;2.95;;;2.05;;
20982;SDS011;10650;51.528;6.748;2023-04-01T03:25:52;3.72;;;2.13;;
20982;SDS011;10650;51.528;6.748;2023-04-01T03:28:19;5.43;;;2.15;;
20982;SDS011;10650;51.528;6.748;2023-04-01T03:30:47;3.08;;;2.50;;
20982;SDS011;10650;51.528;6.748;2023-04-01T03:33:15;3.67;;;3.20;;
20982;SDS011;10650;51.528;6.748;2023-04-01T03:35:43;8.48;;;5.50;;
20982;SDS011;10650;51.528;6.748;2023-04-01T03:38:11;8.18;;;5.82;;
20982;SDS011;10650;51.528;6.748;2023-04-01T03:40:41;4.82;;;3.22;;
20982;SDS011;10650;51.528;6.748;2023-04-01T03:43:11;4.78;;;3.33;;
20982;SDS011;10650;51.528;6.748;2023-04-01T03:45:43;4.18;;;3.13;;
20982;SDS011;10650;51.528;6.748;2023-04-01T03:48:11;4.00;;;3.17;;
20982;SDS011;10650;51.528;6.748;2023-04-01T03:50:39;3.25;;;2.80;;
20982;SDS011;10650;51.528;6.748;2023-04-01T03:53:07;3.15;;;2.83;;
20982;SDS011;10650;51.528;6.748;2023-04-01T03:55:35;3.45;;;2.08;;
20982;SDS011;10650;51.528;6.748;2023-04-01T03:58:04;3.72;;;2.90;;
20982;SDS011;10650;51.528;6.748;2023-04-01T04:00:34;3.63;;;2.28;;
20982;SDS011;10650;51.528;6.748;2023-04-01T04:03:02;3.70;;;2.42;;
20982;SDS011;10650;51.528;6.748;2023-04-01T04:05:30;3.35;;;2.50;;
20982;SDS011;10650;51.528;6.748;2023-04-01T04:07:59;2.60;;;2.40;;
20982;SDS011;10650;51.528;6.748;2023-04-01T04:10:26;5.20;;;2.72;;
20982;SDS011;10650;51.528;6.748;2023-04-01T04:12:55;4.38;;;3.97;;
20982;SDS011;10650;51.528;6.748;2023-04-01T04:15:23;4.05;;;2.60;;
20982;SDS011;10650;51.528;6.748;2023-04-01T04:17:52;3.13;;;2.80;;
20982;SDS011;10650;51.528;6.748;2023-04-01T04:20:20;3.90;;;2.78;;
20982;SDS011;10650;51.528;6.748;2023-04-01T04:22:48;3.53;;;2.53;;
20982;SDS011;10650;51.528;6.748;2023-04-01T04:25:16;3.53;;;3.13;;
20982;SDS011;10650;51.528;6.748;2023-04-01T04:27:44;3.33;;;2.80;;
20982;SDS011;10650;51.528;6.748;2023-04-01T04:30:12;3.72;;;3.28;;
20982;SDS011;10650;51.528;6.748;2023-04-01T04:32:40;3.50;;;3.20;;
20982;SDS011;10650;51.528;6.748;2023-04-01T04:35:09;3.20;;;2.90;;
20982;SDS011;10650;51.528;6.748;2023-04-01T04:37:37;3.10;;;2.80;;
20982;SDS011;10650;51.528;6.748;2023-04-01T04:40:06;3.50;;;2.83;;
20982;SDS011;10650;51.528;6.748;2023-04-01T04:42:34;3.42;;;2.83;;
20982;SDS011;10650;51.528;6.748;2023-04-01T04:45:03;4.18;;;3.15;;
20982;SDS011;10650;51.528;6.748;2023-04-01T04:47:31;4.25;;;2.90;;
20982;SDS011;10650;51.528;6.748;2023-04-01T04:49:59;4.32;;;3.53;;
20982;SDS011;10650;51.528;6.748;2023-04-01T04:52:28;4.35;;;3.42;;
20982;SDS011;10650;51.528;6.748;2023-04-01T04:54:56;3.72;;;3.40;;
20982;SDS011;10650;51.528;6.748;2023-04-01T04:57:24;3.80;;;3.50;;
20982;SDS011;10650;51.528;6.748;2023-04-01T04:59:51;4.30;;;3.90;;
20982;SDS011;10650;51.528;6.748;2023-04-01T05:02:19;3.60;;;3.30;;
20982;SDS011;10650;51.528;6.748;2023-04-01T05:04:47;4.55;;;3.40;;
20982;SDS011;10650;51.528;6.748;2023-04-01T05:07:15;3.88;;;3.53;;
20982;SDS011;10650;51.528;6.748;2023-04-01T05:09:44;4.65;;;3.55;;
20982;SDS011;10650;51.528;6.748;2023-04-01T05:12:13;4.88;;;3.70;;
20982;SDS011;10650;51.528;6.748;2023-04-01T05:14:40;4.32;;;3.60;;
20982;SDS011;10650;51.528;6.748;2023-04-01T05:17:08;4.50;;;3.35;;
20982;SDS011;10650;51.528;6.748;2023-04-01T05:19:37;3.78;;;3.30;;
20982;SDS011;10650;51.528;6.748;2023-04-01T05:22:06;3.60;;;3.30;;
20982;SDS011;10650;51.528;6.748;2023-04-01T05:24:33;3.78;;;3.20;;
20982;SDS011;10650;51.528;6.748;2023-04-01T05:27:03;4.13;;;3.58;;
20982;SDS011;10650;51.528;6.748;2023-04-01T05:29:30;5.50;;;4.45;;
20982;SDS011;10650;51.528;6.748;2023-04-01T05:31:58;4.50;;;4.10;;
20982;SDS011;10650;51.528;6.748;2023-04-01T05:34:26;5.13;;;3.80;;
20982;SDS011;10650;51.528;6.748;2023-04-01T05:36:54;5.40;;;3.33;;
20982;SDS011;10650;51.528;6.748;2023-04-01T05:39:22;4.07;;;3.67;;
20982;SDS011;10650;51.528;6.748;2023-04-01T05:41:50;4.57;;;4.03;;
20982;SDS011;10650;51.528;6.748;2023-04-01T05:44:19;5.43;;;4.75;;
20982;SDS011;10650;51.528;6.748;2023-04-01T05:46:47;5.60;;;4.70;;
20982;SDS011;10650;51.528;6.748;2023-04-01T05:49:15;5.00;;;4.50;;
20982;SDS011;10650;51.528;6.748;2023-04-01T05:51:43;6.60;;;5.53;;
20982;SDS011;10650;51.528;6.748;2023-04-01T05:54:11;6.03;;;5.47;;
20982;SDS011;10650;51.528;6.748;2023-04-01T05:56:39;5.00;;;4.50;;
20982;SDS011;10650;51.528;6.748;2023-04-01T05:59:06;5.82;;;5.22;;
20982;SDS011;10650;51.528;6.748;2023-04-01T06:01:35;7.25;;;5.90;;
20982;SDS011;10650;51.528;6.748;2023-04-01T06:04:03;5.75;;;5.22;;
20982;SDS011;10650;51.528;6.748;2023-04-01T06:06:32;6.40;;;5.80;;
20982;SDS011;10650;51.528;6.748;2023-04-01T06:09:05;8.05;;;6.53;;
20982;SDS011;10650;51.528;6.748;2023-04-01T06:11:41;8.63;;;6.97;;
20982;SDS011;10650;51.528;6.748;2023-04-01T06:14:26;6.20;;;5.60;;
20982;SDS011;10650;51.528;6.748;2023-04-01T06:17:09;8.40;;;6.82;;
20982;SDS011;10650;51.528;6.748;2023-04-01T06:19:48;8.18;;;7.28;;
20982;SDS011;10650;51.528;6.748;2023-04-01T06:22:22;7.15;;;6.40;;
20982;SDS011;10650;51.528;6.748;2023-04-01T06:25:24;7.60;;;6.15;;
20982;SDS011;10650;51.528;6.748;2023-04-01T06:28:18;6.57;;;5.97;;
20982;SDS011;10650;51.528;6.748;2023-04-01T06:31:03;6.70;;;6.10;;
20982;SDS011;10650;51.528;6.748;2023-04-01T06:33:43;7.20;;;6.50;;
20982;SDS011;10650;51.528;6.748;2023-04-01T06:36:26;8.00;;;7.20;;
20982;SDS011;10650;51.528;6.748;2023-04-01T06:39:10;9.35;;;6.63;;
20982;SDS011;10650;51.528;6.748;2023-04-01T06:42:17;6.93;;;6.32;;
20982;SDS011;10650;51.528;6.748;2023-04-01T06:45:05;6.97;;;6.25;;
20982;SDS011;10650;51.528;6.748;2023-04-01T06:47:42;8.80;;;8.00;;
20982;SDS011;10650;51.528;6.748;2023-04-01T06:50:26;7.93;;;7.22;;
20982;SDS011;10650;51.528;6.748;2023-04-01T06:53:00;6.40;;;5.90;;
20982;SDS011;10650;51.528;6.748;2023-04-01T06:55:35;8.48;;;7.38;;
20982;SDS011;10650;51.528;6.748;2023-04-01T06:58:10;7.65;;;6.78;;
20982;SDS011;10650;51.528;6.748;2023-04-01T07:00:46;6.70;;;6.10;;
20982;SDS011;10650;51.528;6.748;2023-04-01T07:03:20;8.20;;;6.93;;
20982;SDS011;10650;51.528;6.748;2023-04-01T07:05:52;8.02;;;7.22;;
20982;SDS011;10650;51.528;6.748;2023-04-01T07:08:22;8.32;;;7.53;;
20982;SDS011;10650;51.528;6.748;2023-04-01T07:10:53;6.60;;;6.00;;
20982;SDS011;10650;51.528;6.748;2023-04-01T07:13:27;6.15;;;5.60;;
20982;SDS011;10650;51.528;6.748;2023-04-01T07:16:04;7.20;;;6.50;;
20982;SDS011;10650;51.528;6.748;2023-04-01T07:18:40;6.70;;;6.10;;
20982;SDS011;10650;51.528;6.748;2023-04-01T07:21:17;6.28;;;5.68;;
20982;SDS011;10650;51.528;6.748;2023-04-01T07:23:50;6.45;;;5.85;;
20982;SDS011;10650;51.528;6.748;2023-04-01T07:26:22;5.90;;;5.40;;
20982;SDS011;10650;51.528;6.748;2023-04-01T07:28:51;7.47;;;6.78;;
20982;SDS011;10650;51.528;6.748;2023-04-01T07:31:23;7.45;;;6.70;;
20982;SDS011;10650;51.528;6.748;2023-04-01T07:34:08;6.03;;;5.53;;
20982;SDS011;10650;51.528;6.748;2023-04-01T07:36:46;6.82;;;6.22;;
20982;SDS011;10650;51.528;6.748;2023-04-01T07:39:25;6.97;;;6.38;;
20982;SDS011;10650;51.528;6.748;2023-04-01T07:42:05;6.95;;;6.22;;
20982;SDS011;10650;51.528;6.748;2023-04-01T07:44:51;5.97;;;5.47;;
20982;SDS011;10650;51.528;6.748;2023-04-01T07:47:33;7.18;;;6.43;;
20982;SDS011;10650;51.528;6.748;2023-04-01T07:50:11;6.55;;;5.95;;
20982;SDS011;10650;51.528;6.748;2023-04-01T07:52:47;6.35;;;5.75;;
20982;SDS011;10650;51.528;6.748;2023-04-01T07:55:23;6.55;;;5.95;;
20982;SDS011;10650;51.528;6.748;2023-04-01T07:57:57;6.95;;;6.25;;
20982;SDS011;10650;51.528;6.748;2023-04-01T08:00:30;6.78;;;6.10;;
20982;SDS011;10650;51.528;6.748;2023-04-01T08:03:11;7.75;;;6.95;;
20982;SDS011;10650;51.528;6.748;2023-04-01T08:05:49;8.25;;;7.15;;
20982;SDS011;10650;51.528;6.748;2023-04-01T08:08:27;9.77;;;7.65;;
20982;SDS011;10650;51.528;6.748;2023-04-01T08:11:04;11.10;;;7.47;;
20982;SDS011;10650;51.528;6.748;2023-04-01T08:13:40;8.18;;;7.03;;
20982;SDS011;10650;51.528;6.748;2023-04-01T08:16:14;8.93;;;7.35;;
20982;SDS011;10650;51.528;6.748;2023-04-01T08:18:50;7.53;;;6.70;;
20982;SDS011;10650;51.528;6.748;2023-04-01T08:21:27;7.65;;;6.85;;
20982;SDS011;10650;51.528;6.748;2023-04-01T08:24:04;7.20;;;6.32;;
20982;SDS011;10650;51.528;6.748;2023-04-01T08:26:41;6.53;;;5.93;;
20982;SDS011;10650;51.528;6.748;2023-04-01T08:29:15;6.35;;;5.75;;
20982;SDS011;10650;51.528;6.748;2023-04-01T08:31:48;7.78;;;6.90;;
20982;SDS011;10650;51.528;6.748;2023-04-01T08:34:23;8.00;;;7.20;;
20982;SDS011;10650;51.528;6.748;2023-04-01T08:36:53;6.22;;;5.63;;
20982;SDS011;10650;51.528;6.748;2023-04-01T08:39:30;7.28;;;6.57;;
20982;SDS011;10650;51.528;6.748;2023-04-01T08:42:17;7.13;;;6.40;;
20982;SDS011;10650;51.528;6.748;2023-04-01T08:44:58;8.38;;;6.78;;
20982;SDS011;10650;51.528;6.748;2023-04-01T08:47:46;7.45;;;6.63;;
20982;SDS011;10650;51.528;6.748;2023-04-01T08:53:35;8.18;;;7.28;;
20982;SDS011;10650;51.528;6.748;2023-04-01T08:56:19;8.32;;;7.45;;
20982;SDS011;10650;51.528;6.748;2023-04-01T08:58:59;7.63;;;6.10;;
20982;SDS011;10650;51.528;6.748;2023-04-01T09:07:34;7.40;;;6.70;;
20982;SDS011;10650;51.528;6.748;2023-04-01T09:10:18;9.05;;;7.80;;
20982;SDS011;10650;51.528;6.748;2023-04-01T09:16:18;11.00;;;8.52;;
20982;SDS011;10650;51.528;6.748;2023-04-01T09:21:57;9.75;;;7.78;;
20982;SDS011;10650;51.528;6.748;2023-04-01T09:27:33;11.32;;;9.30;;
20982;SDS011;10650;51.528;6.748;2023-04-01T09:36:12;9.77;;;8.77;;
20982;SDS011;10650;51.528;6.748;2023-04-01T09:38:55;10.73;;;9.57;;
20982;SDS011;10650;51.528;6.748;2023-04-01T09:41:29;10.27;;;9.10;;
20982;SDS011;10650;51.528;6.748;2023-04-01T09:46:47;9.65;;;8.65;;
20982;SDS011;10650;51.528;6.748;2023-04-01T09:49:47;10.70;;;8.95;;
20982;SDS011;10650;51.528;6.748;2023-04-01T09:52:30;9.75;;;8.15;;
20982;SDS011;10650;51.528;6.748;2023-04-01T09:55:13;6.97;;;6.28;;
20982;SDS011;10650;51.528;6.748;2023-04-01T09:57:53;7.85;;;7.05;;
20982;SDS011;10650;51.528;6.748;2023-04-01T10:00:52;8.85;;;7.80;;
20982;SDS011;10650;51.528;6.748;2023-04-01T10:03:38;9.50;;;8.45;;
20982;SDS011;10650;51.528;6.748;2023-04-01T10:09:48;11.00;;;9.05;;
20982;SDS011;10650;51.528;6.748;2023-04-01T10:19:07;9.40;;;7.82;;
20982;SDS011;10650;51.528;6.748;2023-04-01T10:31:07;9.85;;;8.52;;
20982;SDS011;10650;51.528;6.748;2023-04-01T10:37:10;7.93;;;7.05;;
20982;SDS011;10650;51.528;6.748;2023-04-01T10:40:02;8.35;;;7.47;;
20982;SDS011;10650;51.528;6.748;2023-04-01T10:45:57;9.93;;;8.93;;
20982;SDS011;10650;51.528;6.748;2023-04-01T10:55:08;9.45;;;8.50;;
20982;SDS011;10650;51.528;6.748;2023-04-01T10:58:10;10.18;;;9.07;;
20982;SDS011;10650;51.528;6.748;2023-04-01T11:01:07;12.93;;;9.70;;
20982;SDS011;10650;51.528;6.748;2023-04-01T11:11:07;10.07;;;9.00;;
20982;SDS011;10650;51.528;6.748;2023-04-01T11:14:12;10.23;;;9.13;;
20982;SDS011;10650;51.528;6.748;2023-04-01T11:17:14;10.60;;;9.15;;
20982;SDS011;10650;51.528;6.748;2023-04-01T11:20:25;9.45;;;8.45;;
20982;SDS011;10650;51.528;6.748;2023-04-01T11:23:17;10.90;;;9.45;;
20982;SDS011;10650;51.528;6.748;2023-04-01T11:26:02;11.20;;;10.00;;
20982;SDS011;10650;51.528;6.748;2023-04-01T11:31:39;10.25;;;9.15;;
20982;SDS011;10650;51.528;6.748;2023-04-01T11:34:18;11.60;;;9.63;;
20982;SDS011;10650;51.528;6.748;2023-04-01T11:37:01;10.65;;;9.50;;
20982;SDS011;10650;51.528;6.748;2023-04-01T11:39:41;10.88;;;9.77;;
20982;SDS011;10650;51.528;6.748;2023-04-01T11:42:23;9.85;;;8.15;;
20982;SDS011;10650;51.528;6.748;2023-04-01T11:45:01;9.90;;;8.70;;
20982;SDS011;10650;51.528;6.748;2023-04-01T11:51:00;11.45;;;9.25;;
20982;SDS011;10650;51.528;6.748;2023-04-01T11:53:42;11.80;;;10.02;;
20982;SDS011;10650;51.528;6.748;2023-04-01T11:56:20;11.52;;;10.32;;
20982;SDS011;10650;51.528;6.748;2023-04-01T11:59:08;10.35;;;9.32;;
20982;SDS011;10650;51.528;6.748;2023-04-01T12:01:59;14.43;;;12.85;;
20982;SDS011;10650;51.528;6.748;2023-04-01T12:04:45;9.48;;;8.45;;
20982;SDS011;10650;51.528;6.748;2023-04-01T12:07:30;11.40;;;8.88;;
20982;SDS011;10650;51.528;6.748;2023-04-01T12:10:14;11.23;;;9.73;;
20982;SDS011;10650;51.528;6.748;2023-04-01T12:12:48;9.98;;;9.00;;
20982;SDS011;10650;51.528;6.748;2023-04-01T12:18:02;10.23;;;8.82;;
20982;SDS011;10650;51.528;6.748;2023-04-01T12:20:37;10.43;;;8.90;;
20982;SDS011;10650;51.528;6.748;2023-04-01T12:23:17;15.15;;;11.60;;
20982;SDS011;10650;51.528;6.748;2023-04-01T12:26:00;12.35;;;10.68;;
20982;SDS011;10650;51.528;6.748;2023-04-01T12:28:43;10.02;;;8.50;;
20982;SDS011;10650;51.528;6.748;2023-04-01T12:31:27;8.77;;;7.85;;
20982;SDS011;10650;51.528;6.748;2023-04-01T12:34:22;5.88;;;5.30;;
20982;SDS011;10650;51.528;6.748;2023-04-01T12:37:04;6.90;;;5.63;;
20982;SDS011;10650;51.528;6.748;2023-04-01T12:42:36;6.43;;;5.40;;
20982;SDS011;10650;51.528;6.748;2023-04-01T12:45:27;5.18;;;4.72;;
20982;SDS011;10650;51.528;6.748;2023-04-01T12:54:02;5.93;;;5.25;;
20982;SDS011;10650;51.528;6.748;2023-04-01T12:56:52;5.47;;;4.97;;
20982;SDS011;10650;51.528;6.748;2023-04-01T13:02:53;5.70;;;5.03;;
20982;SDS011;10650;51.528;6.748;2023-04-01T13:05:44;6.85;;;6.15;;
20982;SDS011;10650;51.528;6.748;2023-04-01T13:08:30;8.02;;;7.22;;
20982;SDS011;10650;51.528;6.748;2023-04-01T13:11:08;7.50;;;6.80;;
20982;SDS011;10650;51.528;6.748;2023-04-01T13:13:47;10.30;;;9.23;;
20982;SDS011;10650;51.528;6.748;2023-04-01T13:16:33;12.50;;;11.20;;
20982;SDS011;10650;51.528;6.748;2023-04-01T13:19:07;15.32;;;13.45;;
20982;SDS011;10650;51.528;6.748;2023-04-01T13:21:44;13.32;;;12.00;;
20982;SDS011;10650;51.528;6.748;2023-04-01T13:24:24;12.00;;;10.48;;
20982;SDS011;10650;51.528;6.748;2023-04-01T13:27:00;10.48;;;9.48;;
20982;SDS011;10650;51.528;6.748;2023-04-01T13:29:36;11.13;;;10.02;;
20982;SDS011;10650;51.528;6.748;2023-04-01T13:32:17;12.02;;;9.82;;
20982;SDS011;10650;51.528;6.748;2023-04-01T13:35:13;12.82;;;11.52;;
20982;SDS011;10650;51.528;6.748;2023-04-01T13:37:52;11.52;;;10.40;;
20982;SDS011;10650;51.528;6.748;2023-04-01T13:40:34;13.40;;;11.48;;
20982;SDS011;10650;51.528;6.748;2023-04-01T13:43:19;13.50;;;11.60;;
20982;SDS011;10650;51.528;6.748;2023-04-01T13:46:02;10.30;;;9.25;;
20982;SDS011;10650;51.528;6.748;2023-04-01T13:48:53;12.35;;;10.93;;
20982;SDS011;10650;51.528;6.748;2023-04-01T13:51:57;11.27;;;10.07;;
20982;SDS011;10650;51.528;6.748;2023-04-01T13:54:53;13.18;;;11.88;;
20982;SDS011;10650;51.528;6.748;2023-04-01T13:57:40;15.05;;;12.52;;
20982;SDS011;10650;51.528;6.748;2023-04-01T14:00:32;15.02;;;13.05;;
20982;SDS011;10650;51.528;6.748;2023-04-01T14:03:15;12.13;;;10.80;;
20982;SDS011;10650;51.528;6.748;2023-04-01T14:08:59;10.98;;;9.98;;
20982;SDS011;10650;51.528;6.748;2023-04-01T14:11:39;13.63;;;11.43;;
20982;SDS011;10650;51.528;6.748;2023-04-01T14:14:18;11.98;;;10.77;;
20982;SDS011;10650;51.528;6.748;2023-04-01T14:17:14;12.70;;;11.23;;
20982;SDS011;10650;51.528;6.748;2023-04-01T14:19:51;12.30;;;11.10;;
20982;SDS011;10650;51.528;6.748;2023-04-01T14:22:45;12.40;;;11.15;;
20982;SDS011;10650;51.528;6.748;2023-04-01T14:28:25;11.82;;;10.70;;
20982;SDS011;10650;51.528;6.748;2023-04-01T14:31:14;14.32;;;12.93;;
20982;SDS011;10650;51.528;6.748;2023-04-01T14:33:57;12.50;;;11.30;;
20982;SDS011;10650;51.528;6.748;2023-04-01T14:36:44;16.23;;;12.70;;
20982;SDS011;10650;51.528;6.748;2023-04-01T14:42:41;13.23;;;11.93;;
20982;SDS011;10650;51.528;6.748;2023-04-01T14:45:37;14.30;;;12.80;;
20982;SDS011;10650;51.528;6.748;2023-04-01T14:48:33;12.55;;;11.25;;
20982;SDS011;10650;51.528;6.748;2023-04-01T14:51:09;12.80;;;11.63;;
20982;SDS011;10650;51.528;6.748;2023-04-01T14:53:41;10.80;;;9.77;;
20982;SDS011;10650;51.528;6.748;2023-04-01T14:56:12;12.85;;;11.55;;
20982;SDS011;10650;51.528;6.748;2023-04-01T14:59:01;11.25;;;10.07;;
20982;SDS011;10650;51.528;6.748;2023-04-01T15:01:34;11.93;;;10.77;;
20982;SDS011;10650;51.528;6.748;2023-04-01T15:04:19;13.07;;;11.73;;
20982;SDS011;10650;51.528;6.748;2023-04-01T15:07:19;11.30;;;10.20;;
20982;SDS011;10650;51.528;6.748;2023-04-01T15:09:54;10.77;;;9.77;;
20982;SDS011;10650;51.528;6.748;2023-04-01T15:12:35;11.32;;;10.23;;
20982;SDS011;10650;51.528;6.748;2023-04-01T15:15:17;14.38;;;12.85;;
20982;SDS011;10650;51.528;6.748;2023-04-01T15:18:05;12.35;;;10.90;;
20982;SDS011;10650;51.528;6.748;2023-04-01T15:20:43;11.40;;;10.30;;
20982;SDS011;10650;51.528;6.748;2023-04-01T15:23:43;14.23;;;12.02;;
20982;SDS011;10650;51.528;6.748;2023-04-01T15:26:21;12.70;;;11.43;;
20982;SDS011;10650;51.528;6.748;2023-04-01T15:29:04;11.32;;;10.30;;
20982;SDS011;10650;51.528;6.748;2023-04-01T15:31:48;9.15;;;8.32;;
20982;SDS011;10650;51.528;6.748;2023-04-01T15:34:26;8.88;;;8.07;;
20982;SDS011;10650;51.528;6.748;2023-04-01T15:37:01;9.82;;;8.90;;
20982;SDS011;10650;51.528;6.748;2023-04-01T15:39:44;8.60;;;7.80;;
20982;SDS011;10650;51.528;6.748;2023-04-01T15:42:42;7.97;;;7.18;;
20982;SDS011;10650;51.528;6.748;2023-04-01T15:45:31;8.88;;;8.05;;
20982;SDS011;10650;51.528;6.748;2023-04-01T15:48:13;11.05;;;9.95;;
20982;SDS011;10650;51.528;6.748;2023-04-01T15:51:02;9.05;;;8.25;;
20982;SDS011;10650;51.528;6.748;2023-04-01T15:53:45;9.52;;;8.60;;
20982;SDS011;10650;51.528;6.748;2023-04-01T15:56:26;10.93;;;9.82;;
20982;SDS011;10650;51.528;6.748;2023-04-01T15:59:09;7.65;;;6.60;;
20982;SDS011;10650;51.528;6.748;2023-04-01T16:01:50;7.88;;;7.03;;
20982;SDS011;10650;51.528;6.748;2023-04-01T16:07:21;8.40;;;6.45;;
20982;SDS011;10650;51.528;6.748;2023-04-01T16:10:05;7.07;;;6.38;;
20982;SDS011;10650;51.528;6.748;2023-04-01T16:12:48;8.68;;;7.18;;
20982;SDS011;10650;51.528;6.748;2023-04-01T16:15:32;6.65;;;6.05;;
20982;SDS011;10650;51.528;6.748;2023-04-01T16:18:12;8.27;;;7.30;;
20982;SDS011;10650;51.528;6.748;2023-04-01T16:20:53;16.25;;;11.23;;
20982;SDS011;10650;51.528;6.748;2023-04-01T16:23:26;21.10;;;14.27;;
20982;SDS011;10650;51.528;6.748;2023-04-01T16:26:05;14.07;;;10.98;;
20982;SDS011;10650;51.528;6.748;2023-04-01T16:28:38;8.13;;;6.65;;
20982;SDS011;10650;51.528;6.748;2023-04-01T16:31:12;6.28;;;5.68;;
20982;SDS011;10650;51.528;6.748;2023-04-01T16:33:55;6.60;;;6.00;;
20982;SDS011;10650;51.528;6.748;2023-04-01T16:36:30;7.32;;;6.32;;
20982;SDS011;10650;51.528;6.748;2023-04-01T16:39:22;9.75;;;7.78;;
20982;SDS011;10650;51.528;6.748;2023-04-01T16:42:08;12.95;;;10.38;;
20982;SDS011;10650;51.528;6.748;2023-04-01T16:44:48;8.73;;;7.47;;
20982;SDS011;10650;51.528;6.748;2023-04-01T16:47:23;5.85;;;5.35;;
20982;SDS011;10650;51.528;6.748;2023-04-01T16:49:59;6.90;;;5.85;;
20982;SDS011;10650;51.528;6.748;2023-04-01T16:52:42;6.60;;;5.78;;
20982;SDS011;10650;51.528;6.748;2023-04-01T16:55:33;6.00;;;5.38;;
20982;SDS011;10650;51.528;6.748;2023-04-01T16:58:03;6.70;;;6.05;;
20982;SDS011;10650;51.528;6.748;2023-04-01T17:00:36;7.00;;;6.30;;
20982;SDS011;10650;51.528;6.748;2023-04-01T17:03:10;7.80;;;7.00;;
20982;SDS011;10650;51.528;6.748;2023-04-01T17:05:49;8.70;;;7.80;;
20982;SDS011;10650;51.528;6.748;2023-04-01T17:11:03;8.85;;;7.38;;
20982;SDS011;10650;51.528;6.748;2023-04-01T17:13:41;9.18;;;8.18;;
20982;SDS011;10650;51.528;6.748;2023-04-01T17:16:21;9.70;;;8.38;;
20982;SDS011;10650;51.528;6.748;2023-04-01T17:19:03;9.48;;;8.23;;
20982;SDS011;10650;51.528;6.748;2023-04-01T17:21:45;9.10;;;8.13;;
20982;SDS011;10650;51.528;6.748;2023-04-01T17:24:25;9.32;;;8.30;;
20982;SDS011;10650;51.528;6.748;2023-04-01T17:27:03;11.57;;;9.88;;
20982;SDS011;10650;51.528;6.748;2023-04-01T17:29:46;8.90;;;8.00;;